Eagle Springs, North Carolina
Current Conditions -  °F | °C
As of 3:55 PM on Friday 21 Nov 2014 (Local Time) from KSOP Reporting Station
Clear Clear  
Wind Chill: 52°   Ceiling: Unl
Heat Index: 52°   Visibility: 10mi
Dew Point:   Wind: 6mph
Humidity: 18%   Direction: 20°NNE
Pressure: 30.42"   Gusts: NA
Location:  35.29°N, 79.65°W
Report Text: KSOP 212055Z AUTO 02005KT 10SM CLR 11/M13 A3042 RMK AO1 52007
Loading
Personal Weather Stations






























Interactive Weather Map New forecast layout! Learn more

10-Day Weather Forecast

Advertisements
Track Severe Weather on mobile